createdAt,value
2023-03-19T00:00:31.365Z,5.05
2023-03-19T00:03:18.933Z,5.01
2023-03-19T00:05:53.537Z,4.97
2023-03-19T00:08:21.891Z,4.94
2023-03-19T00:10:49.562Z,4.91
2023-03-19T00:13:17.172Z,4.88
2023-03-19T00:15:45.033Z,4.85
2023-03-19T00:18:12.921Z,4.83
2023-03-19T00:20:40.695Z,4.80
2023-03-19T00:23:09.171Z,4.78
2023-03-19T00:25:37.244Z,4.75
2023-03-19T00:28:04.929Z,4.71
2023-03-19T00:30:32.737Z,4.67
2023-03-19T00:33:01.538Z,4.63
2023-03-19T00:35:29.228Z,4.60
2023-03-19T00:37:56.797Z,4.56
2023-03-19T00:40:24.574Z,4.52
2023-03-19T00:42:52.189Z,4.48
2023-03-19T00:45:20.424Z,4.45
2023-03-19T00:47:47.998Z,4.42
2023-03-19T00:50:15.739Z,4.39
2023-03-19T00:52:43.385Z,4.34
2023-03-19T00:55:11.037Z,4.29
2023-03-19T00:57:38.680Z,4.24
2023-03-19T01:00:08.676Z,4.21
2023-03-19T01:02:36.708Z,4.17
2023-03-19T01:05:04.882Z,4.17
2023-03-19T01:07:32.789Z,4.17
2023-03-19T01:10:00.340Z,4.17
2023-03-19T01:12:27.928Z,4.18
2023-03-19T01:14:55.746Z,4.19
2023-03-19T01:17:23.336Z,4.21
2023-03-19T01:19:51.325Z,4.23
2023-03-19T01:22:19.024Z,4.26
2023-03-19T01:24:47.506Z,4.27
2023-03-19T01:27:15.080Z,4.29
2023-03-19T01:29:42.714Z,4.30
2023-03-19T01:32:10.701Z,4.30
2023-03-19T01:34:38.383Z,4.30
2023-03-19T01:37:06.019Z,4.28
2023-03-19T01:39:33.850Z,4.24
2023-03-19T01:42:03.105Z,4.17
2023-03-19T01:44:36.062Z,4.10
2023-03-19T01:47:06.094Z,4.00
2023-03-19T01:49:33.785Z,3.91
2023-03-19T01:52:02.962Z,3.83
2023-03-19T01:54:30.630Z,3.76
2023-03-19T01:59:55.726Z,3.55
2023-03-19T02:02:33.577Z,3.42
2023-03-19T02:05:04.620Z,3.28
2023-03-19T02:07:33.064Z,3.14
2023-03-19T02:10:01.189Z,3.00
2023-03-19T02:12:28.794Z,2.87
2023-03-19T02:14:56.419Z,2.73
2023-03-19T02:17:24.001Z,2.60
2023-03-19T02:20:11.957Z,2.49
2023-03-19T02:22:41.873Z,2.36
2023-03-19T02:25:32.124Z,2.26
2023-03-19T02:28:00.950Z,2.15
2023-03-19T02:30:31.129Z,2.06
2023-03-19T02:32:58.856Z,2.00
2023-03-19T02:35:27.211Z,1.95
2023-03-19T02:37:54.774Z,1.91
2023-03-19T02:40:27.308Z,1.87
2023-03-19T02:42:54.982Z,1.83
2023-03-19T02:45:23.144Z,1.80
2023-03-19T02:47:50.712Z,1.78
2023-03-19T02:50:18.411Z,1.77
2023-03-19T02:52:46.044Z,1.78
2023-03-19T02:55:13.834Z,1.81
2023-03-19T02:57:41.446Z,1.85
2023-03-19T03:00:10.924Z,1.89
2023-03-19T03:02:38.854Z,1.93
2023-03-19T03:05:07.057Z,1.96
2023-03-19T03:07:34.880Z,1.98
2023-03-19T03:10:02.478Z,1.98
2023-03-19T03:12:30.135Z,1.95
2023-03-19T03:14:57.752Z,1.90
2023-03-19T03:17:25.630Z,1.82
2023-03-19T03:19:53.353Z,1.74
2023-03-19T03:22:21.711Z,1.65
2023-03-19T03:24:49.292Z,1.59
2023-03-19T03:27:17.338Z,1.54
2023-03-19T03:29:45.197Z,1.51
2023-03-19T03:32:13.052Z,1.48
2023-03-19T03:34:41.014Z,1.45
2023-03-19T03:37:09.360Z,1.43
2023-03-19T03:39:37.701Z,1.41
2023-03-19T03:42:05.459Z,1.40
2023-03-19T03:44:33.229Z,1.38
2023-03-19T03:47:00.844Z,1.36
2023-03-19T03:49:28.504Z,1.34
2023-03-19T03:51:56.131Z,1.32
2023-03-19T03:54:23.819Z,1.28
2023-03-19T03:56:51.494Z,1.26
2023-03-19T03:59:19.128Z,1.24
2023-03-19T04:01:46.881Z,1.21
2023-03-19T04:04:15.569Z,1.19
2023-03-19T04:06:43.207Z,1.16
2023-03-19T04:09:10.807Z,1.13
2023-03-19T04:11:38.901Z,1.11
2023-03-19T04:14:08.095Z,1.08
2023-03-19T04:16:35.827Z,1.05
2023-03-19T04:19:03.499Z,1.02
2023-03-19T04:21:31.171Z,1.00
2023-03-19T04:23:59.001Z,0.99
2023-03-19T04:26:27.071Z,0.98
2023-03-19T04:28:54.689Z,0.97
2023-03-19T04:31:22.293Z,0.97
2023-03-19T04:33:49.994Z,0.96
2023-03-19T04:36:17.993Z,0.94
2023-03-19T04:38:45.644Z,0.93
2023-03-19T04:41:15.888Z,0.90
2023-03-19T04:43:43.523Z,0.87
2023-03-19T04:46:11.795Z,0.83
2023-03-19T04:48:39.919Z,0.79
2023-03-19T04:51:09.314Z,0.75
2023-03-19T04:53:37.889Z,0.73
2023-03-19T04:56:07.184Z,0.70
2023-03-19T04:58:35.222Z,0.69
2023-03-19T05:01:03.873Z,0.67
2023-03-19T05:03:31.791Z,0.65
2023-03-19T05:05:59.703Z,0.65
2023-03-19T05:08:27.279Z,0.64
2023-03-19T05:10:55.078Z,0.63
2023-03-19T05:13:22.661Z,0.62
2023-03-19T05:15:53.101Z,0.61
2023-03-19T05:18:20.921Z,0.61
2023-03-19T05:20:48.647Z,0.61
2023-03-19T05:23:17.968Z,0.62
2023-03-19T05:25:46.401Z,0.63
2023-03-19T05:28:14.048Z,0.64
2023-03-19T05:30:42.243Z,0.66
2023-03-19T05:33:09.937Z,0.68
2023-03-19T05:35:38.049Z,0.71
2023-03-19T05:38:06.446Z,0.74
2023-03-19T05:40:36.125Z,0.77
2023-03-19T05:43:03.906Z,0.80
2023-03-19T05:45:31.514Z,0.84
2023-03-19T05:47:59.128Z,0.88
2023-03-19T05:50:26.891Z,0.92
2023-03-19T05:52:54.462Z,0.96
2023-03-19T05:55:22.264Z,1.02
2023-03-19T05:57:49.942Z,1.10
2023-03-19T06:00:18.176Z,1.20
2023-03-19T06:02:45.927Z,1.33
2023-03-19T06:05:13.557Z,1.50
2023-03-19T06:07:41.378Z,1.73
2023-03-19T06:10:09.528Z,1.94
2023-03-19T06:12:37.341Z,2.19
2023-03-19T06:15:05.519Z,2.40
2023-03-19T06:17:33.212Z,2.58
2023-03-19T06:20:01.206Z,2.75
2023-03-19T06:22:29.003Z,2.91
2023-03-19T06:24:56.847Z,3.07
2023-03-19T06:27:24.590Z,3.22
2023-03-19T06:29:52.255Z,3.36
2023-03-19T06:32:19.922Z,3.52
2023-03-19T06:34:47.715Z,3.68
2023-03-19T06:37:15.901Z,3.87
2023-03-19T06:39:43.821Z,4.06
2023-03-19T06:42:12.199Z,4.24
2023-03-19T06:44:40.102Z,4.43
2023-03-19T06:47:08.613Z,4.64
2023-03-19T06:49:36.301Z,4.84
2023-03-19T06:52:04.344Z,5.05
2023-03-19T06:54:32.662Z,5.24
2023-03-19T06:57:00.492Z,5.41
2023-03-19T06:59:28.365Z,5.57
2023-03-19T07:01:56.618Z,5.72
2023-03-19T07:04:24.407Z,5.86
2023-03-19T07:06:52.533Z,5.97
2023-03-19T07:09:20.852Z,6.09
2023-03-19T07:11:48.899Z,6.21
2023-03-19T07:14:16.793Z,6.32
2023-03-19T07:16:44.954Z,6.42
2023-03-19T07:19:13.025Z,6.52
2023-03-19T07:21:40.686Z,6.62
2023-03-19T07:24:08.670Z,6.72
2023-03-19T07:26:36.686Z,6.80
2023-03-19T07:29:04.520Z,6.89
2023-03-19T07:31:32.440Z,6.96
2023-03-19T07:34:00.127Z,7.05
2023-03-19T07:36:28.168Z,7.13
2023-03-19T07:38:56.469Z,7.22
2023-03-19T07:41:24.071Z,7.30
2023-03-19T07:43:51.773Z,7.41
2023-03-19T07:46:19.709Z,7.50
2023-03-19T07:48:47.633Z,7.58
2023-03-19T07:51:15.429Z,7.67
2023-03-19T07:53:43.462Z,7.74
2023-03-19T07:56:11.935Z,7.80
2023-03-19T07:58:39.827Z,7.87
2023-03-19T08:01:07.662Z,7.97
2023-03-19T08:03:35.836Z,8.06
2023-03-19T08:06:04.358Z,8.13
2023-03-19T08:08:34.867Z,8.22
2023-03-19T08:11:03.486Z,8.32
2023-03-19T08:13:31.713Z,8.44
2023-03-19T08:15:59.375Z,8.57
2023-03-19T08:18:27.328Z,8.69
2023-03-19T08:20:55.283Z,8.79
2023-03-19T08:23:23.270Z,8.85
2023-03-19T08:25:53.528Z,8.91
2023-03-19T08:28:21.144Z,8.98
2023-03-19T08:30:49.193Z,9.05
2023-03-19T08:33:17.292Z,9.12
2023-03-19T08:35:45.134Z,9.20
2023-03-19T08:38:13.109Z,9.30
2023-03-19T08:40:41.139Z,9.37
2023-03-19T08:43:09.173Z,9.43
2023-03-19T08:45:37.249Z,9.50
2023-03-19T08:48:05.059Z,9.58
2023-03-19T08:50:33.289Z,9.67
2023-03-19T08:53:01.448Z,9.77
2023-03-19T08:55:29.051Z,9.88
2023-03-19T08:57:56.622Z,10.02
2023-03-19T09:00:24.550Z,10.16
2023-03-19T09:02:52.521Z,10.31
2023-03-19T09:05:22.563Z,10.48
2023-03-19T09:07:50.896Z,10.66
2023-03-19T09:10:18.549Z,10.80
2023-03-19T09:12:48.488Z,10.95
2023-03-19T09:15:17.043Z,11.09
2023-03-19T09:17:44.826Z,11.22
2023-03-19T09:20:12.684Z,11.34
2023-03-19T09:22:40.652Z,11.43
2023-03-19T09:25:08.924Z,11.50
2023-03-19T09:27:36.705Z,11.58
2023-03-19T09:30:04.987Z,11.66
2023-03-19T09:32:33.109Z,11.73
2023-03-19T09:35:01.236Z,11.79
2023-03-19T09:37:28.981Z,11.87
2023-03-19T09:39:56.944Z,11.93
2023-03-19T09:43:02.841Z,12.02
2023-03-19T09:45:30.797Z,12.16
2023-03-19T09:48:05.803Z,12.26
2023-03-19T09:50:34.763Z,12.37
2023-03-19T09:53:19.620Z,12.50
2023-03-19T09:55:51.702Z,12.63
2023-03-19T09:58:26.976Z,12.74
2023-03-19T10:00:54.688Z,12.85
2023-03-19T10:03:32.033Z,12.96
2023-03-19T10:06:24.861Z,13.08
2023-03-19T10:09:01.411Z,13.22
2023-03-19T10:11:40.605Z,13.28
2023-03-19T10:14:27.249Z,13.36
2023-03-19T10:16:55.856Z,13.45
2023-03-19T10:19:29.278Z,13.53
2023-03-19T10:22:00.781Z,13.62
2023-03-19T10:24:33.595Z,13.73
2023-03-19T10:27:02.969Z,14.03
2023-03-19T10:29:30.660Z,14.63
2023-03-19T10:32:13.469Z,15.20
2023-03-19T10:34:45.902Z,15.67
2023-03-19T10:37:13.484Z,15.93
2023-03-19T10:39:43.113Z,16.19
2023-03-19T10:42:19.348Z,16.64
2023-03-19T10:44:56.038Z,17.02
2023-03-19T10:47:25.878Z,17.32
2023-03-19T10:49:53.523Z,17.52
2023-03-19T10:52:27.494Z,17.67
2023-03-19T10:55:04.990Z,17.69
2023-03-19T10:57:32.602Z,17.88
2023-03-19T11:00:05.831Z,18.10
2023-03-19T11:02:34.229Z,18.34
2023-03-19T11:05:14.966Z,18.54
2023-03-19T11:07:42.591Z,18.72
2023-03-19T11:10:17.322Z,18.79
2023-03-19T11:12:52.183Z,18.84
2023-03-19T11:15:30.001Z,19.02
2023-03-19T11:18:24.707Z,19.13
2023-03-19T11:21:02.117Z,19.10
2023-03-19T11:23:30.718Z,19.07
2023-03-19T11:26:04.118Z,19.16
2023-03-19T11:28:33.900Z,19.30
2023-03-19T11:31:21.645Z,19.42
2023-03-19T11:34:13.702Z,19.44
2023-03-19T11:36:53.988Z,19.49
2023-03-19T11:39:28.890Z,19.61
2023-03-19T11:42:21.428Z,19.74
2023-03-19T11:45:26.959Z,19.88
2023-03-19T11:48:33.924Z,19.98
2023-03-19T11:51:11.256Z,20.03
2023-03-19T11:53:49.224Z,20.14
2023-03-19T11:56:26.121Z,20.26
2023-03-19T11:59:21.163Z,20.33
2023-03-19T12:02:07.646Z,20.37
2023-03-19T12:04:55.892Z,20.50
2023-03-19T12:07:29.844Z,20.53
2023-03-19T12:10:22.052Z,20.57
2023-03-19T12:13:02.969Z,20.60
2023-03-19T12:15:46.468Z,20.69
2023-03-19T12:18:42.057Z,20.76
2023-03-19T12:21:15.190Z,20.87
2023-03-19T12:24:03.782Z,20.91
2023-03-19T12:27:16.054Z,20.93
2023-03-19T12:30:15.812Z,20.86
2023-03-19T12:33:15.692Z,20.82
2023-03-19T12:35:43.709Z,20.78
2023-03-19T12:38:27.763Z,20.78
2023-03-19T12:41:07.835Z,20.77
2023-03-19T12:43:38.253Z,20.71
2023-03-19T12:46:16.660Z,20.66
2023-03-19T12:48:45.614Z,20.62
2023-03-19T12:51:15.316Z,20.66
2023-03-19T12:53:45.867Z,20.77
2023-03-19T12:56:24.999Z,20.87
2023-03-19T12:59:00.157Z,20.94
2023-03-19T13:01:31.185Z,20.99
2023-03-19T13:03:59.822Z,21.06
2023-03-19T13:06:45.820Z,21.13
2023-03-19T13:09:14.786Z,21.21
2023-03-19T13:12:04.222Z,21.24
2023-03-19T13:14:37.517Z,21.24
2023-03-19T13:17:15.514Z,21.25
2023-03-19T13:19:48.149Z,21.30
2023-03-19T13:22:19.412Z,21.40
2023-03-19T13:24:47.284Z,21.43
2023-03-19T13:27:30.043Z,21.50
2023-03-19T13:30:10.529Z,21.64
2023-03-19T13:32:41.539Z,21.69
2023-03-19T13:35:36.654Z,21.61
2023-03-19T13:38:15.766Z,21.58
2023-03-19T13:40:50.425Z,21.61
2023-03-19T13:43:30.153Z,21.57
2023-03-19T13:46:11.932Z,21.46
2023-03-19T13:48:45.877Z,21.36
2023-03-19T13:51:19.760Z,21.30
2023-03-19T13:53:54.695Z,21.27
2023-03-19T13:56:29.966Z,21.20
2023-03-19T13:59:17.162Z,21.19
2023-03-19T14:01:45.201Z,21.24
2023-03-19T14:04:25.280Z,21.26
2023-03-19T14:06:57.402Z,21.28
2023-03-19T14:09:40.767Z,21.34
2023-03-19T14:12:21.303Z,21.32
2023-03-19T14:14:50.490Z,21.29
2023-03-19T14:17:26.716Z,21.29
2023-03-19T14:19:55.538Z,21.21
2023-03-19T14:22:37.855Z,21.11
2023-03-19T14:25:18.009Z,20.97
2023-03-19T14:27:59.604Z,20.81
2023-03-19T14:30:30.391Z,20.64
2023-03-19T14:32:59.523Z,20.54
2023-03-19T14:35:36.737Z,20.50
2023-03-19T14:38:05.027Z,20.40
2023-03-19T14:40:37.336Z,20.28
2023-03-19T14:43:34.850Z,20.20
2023-03-19T14:46:04.187Z,20.10
2023-03-19T14:49:23.673Z,20.03
2023-03-19T14:52:06.566Z,19.98
2023-03-19T14:54:38.168Z,19.96
2023-03-19T14:57:36.085Z,19.94
2023-03-19T15:00:07.005Z,19.92
2023-03-19T15:02:43.172Z,19.89
2023-03-19T15:05:33.205Z,19.81
2023-03-19T15:08:05.376Z,19.72
2023-03-19T15:10:41.792Z,19.61
2023-03-19T15:13:40.014Z,19.51
2023-03-19T15:16:19.867Z,19.42
2023-03-19T15:18:47.450Z,19.34
2023-03-19T15:21:15.563Z,19.26
2023-03-19T15:23:45.656Z,19.15
2023-03-19T15:26:13.422Z,19.04
2023-03-19T15:28:49.470Z,18.95
2023-03-19T15:31:46.293Z,18.85
2023-03-19T15:34:23.790Z,18.74
2023-03-19T15:36:57.677Z,18.66
2023-03-19T15:39:27.240Z,18.58
2023-03-19T15:41:54.898Z,18.50
2023-03-19T15:44:47.269Z,18.41
2023-03-19T15:47:18.584Z,18.35
2023-03-19T15:49:58.368Z,18.32
2023-03-19T15:52:26.194Z,18.28
2023-03-19T15:54:57.582Z,18.25
2023-03-19T15:57:25.189Z,18.21
2023-03-19T15:59:54.188Z,18.17
2023-03-19T16:02:30.008Z,18.12
2023-03-19T16:07:46.921Z,17.96
2023-03-19T16:10:37.541Z,17.88
2023-03-19T16:13:32.007Z,17.75
2023-03-19T16:16:06.892Z,17.63
2023-03-19T16:18:42.697Z,17.53
2023-03-19T16:21:16.652Z,17.43
2023-03-19T16:23:49.135Z,17.33
2023-03-19T16:26:19.094Z,17.22
2023-03-19T16:28:57.950Z,17.11
2023-03-19T16:31:29.097Z,16.98
2023-03-19T16:33:57.240Z,16.84
2023-03-19T16:36:28.150Z,16.67
2023-03-19T16:39:18.696Z,16.52
2023-03-19T16:41:46.267Z,16.34
2023-03-19T16:44:17.599Z,16.18
2023-03-19T16:46:45.303Z,16.01
2023-03-19T16:49:13.105Z,15.83
2023-03-19T16:51:40.988Z,15.65
2023-03-19T16:54:10.173Z,15.49
2023-03-19T16:56:38.323Z,15.30
2023-03-19T16:59:06.526Z,15.12
2023-03-19T17:01:34.186Z,14.94
2023-03-19T17:04:01.849Z,14.76
2023-03-19T17:06:34.456Z,14.57
2023-03-19T17:09:02.048Z,14.39
2023-03-19T17:11:31.342Z,14.23
2023-03-19T17:13:59.316Z,14.05
2023-03-19T17:16:27.497Z,13.88
2023-03-19T17:18:55.289Z,13.70
2023-03-19T17:21:32.466Z,13.55
2023-03-19T17:24:16.690Z,13.36
2023-03-19T17:26:44.943Z,13.20
2023-03-19T17:29:12.504Z,13.05
2023-03-19T17:31:40.201Z,12.90
2023-03-19T17:34:12.830Z,12.75
2023-03-19T17:36:40.359Z,12.59
2023-03-19T17:39:10.410Z,12.44
2023-03-19T17:41:38.200Z,12.29
2023-03-19T17:44:06.682Z,12.15
2023-03-19T17:46:38.199Z,12.03
2023-03-19T17:49:06.337Z,11.90
2023-03-19T17:51:33.991Z,11.76
2023-03-19T17:54:02.089Z,11.63
2023-03-19T17:56:29.844Z,11.50
2023-03-19T17:58:57.492Z,11.38
2023-03-19T18:01:27.982Z,11.26
2023-03-19T18:03:56.438Z,11.13
2023-03-19T18:06:25.762Z,11.02
2023-03-19T18:08:53.422Z,10.91
2023-03-19T18:11:21.048Z,10.79
2023-03-19T18:13:48.782Z,10.68
2023-03-19T18:16:28.945Z,10.55
2023-03-19T18:18:58.527Z,10.41
2023-03-19T18:21:27.174Z,10.27
2023-03-19T18:23:55.039Z,10.16
2023-03-19T18:26:23.686Z,10.02
2023-03-19T18:28:51.459Z,9.89
2023-03-19T18:31:24.446Z,9.78
2023-03-19T18:33:57.834Z,9.67
2023-03-19T18:36:26.866Z,9.56
2023-03-19T18:38:55.252Z,9.45
2023-03-19T18:41:24.667Z,9.36
2023-03-19T18:43:52.369Z,9.27
2023-03-19T18:46:26.631Z,9.18
2023-03-19T18:49:01.995Z,9.09
2023-03-19T18:51:29.859Z,9.01
2023-03-19T18:53:57.543Z,8.92
2023-03-19T18:56:27.272Z,8.84
2023-03-19T18:58:55.286Z,8.77
2023-03-19T19:01:23.372Z,8.69
2023-03-19T19:03:51.486Z,8.61
2023-03-19T19:06:33.348Z,8.54
2023-03-19T19:09:12.963Z,8.45
2023-03-19T19:11:41.222Z,8.37
2023-03-19T19:14:16.066Z,8.29
2023-03-19T19:16:44.302Z,8.22
2023-03-19T19:19:16.605Z,8.15
2023-03-19T19:21:44.239Z,8.09
2023-03-19T19:24:14.917Z,8.03
2023-03-19T19:26:42.546Z,7.96
2023-03-19T19:29:13.675Z,7.88
2023-03-19T19:31:41.399Z,7.83
2023-03-19T19:34:16.074Z,7.76
2023-03-19T19:36:43.707Z,7.69
2023-03-19T19:39:11.348Z,7.66
2023-03-19T19:41:38.944Z,7.60
2023-03-19T19:44:06.780Z,7.55
2023-03-19T19:46:34.842Z,7.49
2023-03-19T19:49:02.459Z,7.42
2023-03-19T19:51:31.061Z,7.34
2023-03-19T19:53:58.629Z,7.27
2023-03-19T19:56:26.806Z,7.21
2023-03-19T19:58:54.625Z,7.16
2023-03-19T20:01:23.868Z,7.11
2023-03-19T20:03:52.160Z,7.05
2023-03-19T20:06:19.834Z,7.00
2023-03-19T20:08:50.657Z,6.93
2023-03-19T20:11:20.853Z,6.87
2023-03-19T20:13:51.433Z,6.80
2023-03-19T20:16:19.584Z,6.75
2023-03-19T20:18:47.688Z,6.70
2023-03-19T20:21:16.093Z,6.65
2023-03-19T20:23:44.204Z,6.60
2023-03-19T20:26:16.589Z,6.55
2023-03-19T20:28:44.316Z,6.52
2023-03-19T20:31:25.676Z,6.50
2023-03-19T20:33:53.331Z,6.48
2023-03-19T20:36:21.123Z,6.48
2023-03-19T20:38:48.880Z,6.49
2023-03-19T20:41:21.530Z,6.54
2023-03-19T20:43:49.269Z,6.60
2023-03-19T20:46:18.776Z,6.67
2023-03-19T20:48:46.806Z,6.74
2023-03-19T20:51:19.791Z,6.82
2023-03-19T20:53:48.581Z,6.92
2023-03-19T20:56:17.572Z,7.01
2023-03-19T20:58:45.464Z,7.10
2023-03-19T21:01:15.495Z,7.18
2023-03-19T21:03:43.210Z,7.25
2023-03-19T21:06:39.584Z,7.32
2023-03-19T21:09:17.817Z,7.41
2023-03-19T21:11:45.660Z,7.47
2023-03-19T21:14:16.393Z,7.53
2023-03-19T21:16:44.086Z,7.60
2023-03-19T21:19:12.711Z,7.67
2023-03-19T21:21:42.188Z,7.73
2023-03-19T21:24:15.031Z,7.81
2023-03-19T21:26:42.545Z,7.88
2023-03-19T21:29:21.917Z,7.94
2023-03-19T21:31:49.671Z,8.00
2023-03-19T21:34:17.524Z,8.06
2023-03-19T21:36:45.669Z,8.10
2023-03-19T21:39:13.540Z,8.15
2023-03-19T21:41:41.194Z,8.18
2023-03-19T21:44:13.943Z,8.22
2023-03-19T21:46:42.561Z,8.24
2023-03-19T21:49:13.345Z,8.27
2023-03-19T21:51:42.783Z,8.29
2023-03-19T21:54:11.397Z,8.30
2023-03-19T21:56:40.709Z,8.32
2023-03-19T21:59:22.849Z,8.33
2023-03-19T22:01:50.989Z,8.34
2023-03-19T22:04:19.358Z,8.36
2023-03-19T22:06:47.470Z,8.37
2023-03-19T22:09:15.047Z,8.37
2023-03-19T22:11:43.228Z,8.38
2023-03-19T22:14:30.127Z,8.38
2023-03-19T22:16:57.869Z,8.39
2023-03-19T22:19:26.085Z,8.39
2023-03-19T22:21:53.683Z,8.39
2023-03-19T22:24:21.596Z,8.38
2023-03-19T22:26:49.674Z,8.38
2023-03-19T22:29:23.562Z,8.38
2023-03-19T22:31:51.601Z,8.38
2023-03-19T22:34:22.164Z,8.39
2023-03-19T22:36:49.862Z,8.39
2023-03-19T22:39:17.722Z,8.38
2023-03-19T22:41:46.434Z,8.38
2023-03-19T22:44:28.196Z,8.36
2023-03-19T22:46:56.683Z,8.36
2023-03-19T22:49:24.941Z,8.35
2023-03-19T22:51:52.735Z,8.34
2023-03-19T22:54:20.386Z,8.32
2023-03-19T22:56:47.959Z,8.31
2023-03-19T22:59:16.140Z,8.29
2023-03-19T23:01:45.068Z,8.28
2023-03-19T23:04:20.520Z,8.25
2023-03-19T23:06:48.359Z,8.23
2023-03-19T23:09:18.381Z,8.22
2023-03-19T23:11:48.310Z,8.19
2023-03-19T23:14:28.369Z,8.16
2023-03-19T23:19:30.478Z,8.11
2023-03-19T23:21:58.803Z,8.07
2023-03-19T23:24:26.659Z,8.04
2023-03-19T23:26:54.873Z,7.99
2023-03-19T23:29:34.319Z,7.95
2023-03-19T23:32:03.463Z,7.89
2023-03-19T23:34:33.521Z,7.83
2023-03-19T23:37:03.153Z,7.76
2023-03-19T23:39:30.711Z,7.69
2023-03-19T23:41:59.129Z,7.63
2023-03-19T23:44:29.115Z,7.57
2023-03-19T23:46:59.698Z,7.50
2023-03-19T23:49:29.000Z,7.47
2023-03-19T23:51:57.623Z,7.44
2023-03-19T23:54:43.515Z,7.43
2023-03-19T23:57:18.376Z,7.43
2023-03-19T23:59:55.650Z,7.43
